Ana Sayfa
METAR-TAF:

METAR-TAF

Havaalanları :

Târgu Mureş, Romanya

Enlem: 46-32N, Boylam: 024-32E, yükseklik: 308 m

Güncel hava durumu gözlemi

Rapor saat 23:00 UTC de 39 dakika önce yapıldı.
Rüzgar doğudan 8 kt
Sıcaklık 3°C
Nem 81%
Basınç 1003 hPa
Görüş mesafesi 10 km veya daha fazla

METAR: LRTM 252300Z AUTO 09008KT 9999 BKN090/// BKN100/// 03/00 Q1003

Saat: 01:39 (23:39 UTC)

Tahmin

Rapor saat 19:08 UTC de 4 saat ve 31 dakika önce yapıldı.
Ayın 25'si saat 19 UTC'den ayın 26'si saat 03 UTC'ye kadar geçerli Tahmin
Rüzgar değişken yönden 4 kt
Görüş mesafesi 10 km veya daha fazla
1500 m altında bulut yok ve kümülonimbus yok

TAF: LRTM 251908Z 2519/2603 VRB04KT CAVOK

4.000'den fazla havaalanı için hava durumu gözlemleri ve tahminleri (METAR ve TAF raporları).

Kullanılabilir istasyonlar harita üzerinde sarı ve kırmızı noktalarla gösterilir.

İstasyonun adını görmek için fareyi noktanın üzerinde gezdirin.

Sonrasında hava gözlem ve tahminlerini görmek için tıklayın.

Haritayı değiştirmek için: yaklaştırmak için siyah artı işaretli yeşil düğmeye ve uzaklaştırmak için de eksi işaretli düğmeye hızla tıklayın; bitişik haritalar için yeşil okları kullanın.


METAR-TAF: